Time;durP1;ratioP1;P1;durP2;ratioP2;P2;SDS_P1;SDS_P2;PMS_P1;PMS_P2;Temp;Humidity;BMP_temperature;BMP_pressure;BME280_temperature;BME280_humidity;BME280_pressure;Samples;Min_cycle;Max_cycle;Signal;HPM_P1;HPM_P2
2023/05/30 00:01:18;;;;;;;6.10;1.45;;;10.80;99.90;;;;;;5090973;28;20058;-86
2023/05/30 00:03:45;;;;;;;13.15;2.17;;;10.80;99.90;;;;;;5095955;28;20093;-85
2023/05/30 00:06:14;;;;;;;5.97;1.40;;;10.80;99.90;;;;;;5093681;28;20136;-86
2023/05/30 00:08:43;;;;;;;7.47;1.45;;;10.80;99.90;;;;;;5095690;28;20044;-87
2023/05/30 00:11:13;;;;;;;6.75;1.65;;;11.00;99.90;;;;;;5077621;28;20067;-88
2023/05/30 00:13:42;;;;;;;14.20;2.22;;;10.90;99.90;;;;;;5095030;28;20048;-85
2023/05/30 00:16:08;;;;;;;8.18;1.63;;;11.20;99.90;;;;;;5072179;28;20040;-88
2023/05/30 00:18:34;;;;;;;4.55;1.23;;;10.70;99.90;;;;;;5057271;28;20048;-86
2023/05/30 00:21:05;;;;;;;3.72;1.20;;;10.70;99.90;;;;;;5075209;28;20044;-87
2023/05/30 00:23:32;;;;;;;6.28;1.50;;;10.70;99.90;;;;;;5057255;28;20056;-87
2023/05/30 00:25:59;;;;;;;5.88;1.45;;;11.10;99.90;;;;;;5077328;28;20024;-83
2023/05/30 00:28:25;;;;;;;6.32;1.63;;;10.70;99.90;;;;;;5074955;28;20047;-84
2023/05/30 00:30:52;;;;;;;7.22;1.45;;;10.70;99.90;;;;;;5095050;28;20085;-87
2023/05/30 00:33:18;;;;;;;11.15;1.58;;;10.60;99.90;;;;;;5087976;28;20485;-89
2023/05/30 00:35:44;;;;;;;4.72;1.10;;;10.70;99.90;;;;;;5075060;28;20128;-87
2023/05/30 00:38:09;;;;;;;5.35;1.25;;;10.80;99.90;;;;;;5076764;28;20044;-81
2023/05/30 00:40:35;;;;;;;3.40;1.00;;;11.00;99.90;;;;;;5091710;28;20070;-83
2023/05/30 00:43:01;;;;;;;5.47;1.45;;;11.10;99.90;;;;;;5057536;28;20044;-85
2023/05/30 00:45:26;;;;;;;8.60;1.33;;;10.60;99.90;;;;;;5074457;28;20131;-84
2023/05/30 00:47:53;;;;;;;6.55;1.20;;;11.10;99.90;;;;;;5077242;28;20392;-85
2023/05/30 00:50:20;;;;;;;6.95;1.77;;;10.60;99.90;;;;;;5058217;28;20040;-83
2023/05/30 00:52:49;;;;;;;5.05;1.48;;;10.60;99.90;;;;;;5074803;28;20041;-83
2023/05/30 00:55:16;;;;;;;4.75;1.35;;;10.60;99.90;;;;;;5056637;28;20104;-86
2023/05/30 00:57:43;;;;;;;6.95;1.77;;;10.60;99.90;;;;;;5089787;28;20098;-88
2023/05/30 01:00:10;;;;;;;3.60;1.50;;;10.60;99.90;;;;;;5094216;28;20043;-89
2023/05/30 01:02:38;;;;;;;7.07;1.42;;;10.60;99.90;;;;;;5094865;28;20754;-88
2023/05/30 01:05:04;;;;;;;4.82;1.85;;;10.80;99.90;;;;;;5095036;28;20511;-88
2023/05/30 01:15:08;;;;;;;7.20;1.42;;;10.60;99.90;;;;;;5092896;28;20384;-90
2023/05/30 01:17:54;;;;;;;5.13;1.60;;;10.60;99.90;;;;;;5094690;28;20114;-85
2023/05/30 01:20:24;;;;;;;4.25;1.23;;;10.60;99.90;;;;;;5074635;28;20109;-85
2023/05/30 01:23:13;;;;;;;5.43;1.20;;;10.60;99.90;;;;;;5093838;28;20115;-89
2023/05/30 01:25:52;;;;;;;5.18;1.27;;;10.60;99.90;;;;;;5094538;28;20048;-86
2023/05/30 01:28:21;;;;;;;9.80;1.95;;;10.60;99.90;;;;;;5103983;28;20086;-83
2023/05/30 01:30:51;;;;;;;11.25;1.92;;;10.70;99.90;;;;;;5064210;28;20048;-87
2023/05/30 01:33:19;;;;;;;8.73;1.92;;;11.10;99.90;;;;;;5074589;28;20405;-85
2023/05/30 01:35:46;;;;;;;6.35;1.60;;;10.80;99.90;;;;;;5082990;28;20056;-84
2023/05/30 01:38:13;;;;;;;3.33;1.10;;;10.60;99.90;;;;;;5087091;28;20059;-83
2023/05/30 01:40:40;;;;;;;3.67;1.40;;;10.60;99.90;;;;;;5057661;28;20131;-86
2023/05/30 01:43:33;;;;;;;7.82;1.52;;;10.60;99.90;;;;;;5074813;28;20496;-83
2023/05/30 01:46:22;;;;;;;3.63;1.58;;;10.70;99.90;;;;;;5055712;28;20040;-84
2023/05/30 01:49:29;;;;;;;7.35;2.35;;;10.70;99.90;;;;;;5073765;28;20041;-86
2023/05/30 01:52:07;;;;;;;4.90;1.70;;;10.70;99.90;;;;;;4972631;28;20499;-85
2023/05/30 01:54:35;;;;;;;8.07;1.90;;;10.70;99.90;;;;;;4991372;28;20054;-84
2023/05/30 01:57:11;;;;;;;10.40;1.85;;;10.70;99.90;;;;;;4991114;28;20090;-85
2023/05/30 01:59:38;;;;;;;;;;;11.00;99.90;;;;;;4959821;28;20685;-86
2023/05/30 02:02:04;;;;;;;7.80;1.90;;;10.70;99.90;;;;;;4991876;28;19977;-84
2023/05/30 02:04:31;;;;;;;11.43;2.35;;;10.70;99.90;;;;;;4986145;28;20046;-85
2023/05/30 02:06:56;;;;;;;7.30;2.45;;;10.70;99.90;;;;;;4956662;28;20050;-82
2023/05/30 02:09:23;;;;;;;7.88;1.70;;;10.70;99.90;;;;;;4972646;28;20499;-82
2023/05/30 02:11:49;;;;;;;4.63;1.80;;;10.70;99.90;;;;;;4972461;28;20051;-82
2023/05/30 02:14:14;;;;;;;5.38;1.63;;;10.70;99.90;;;;;;4973282;28;20392;-85
2023/05/30 02:16:40;;;;;;;5.10;1.63;;;10.70;99.90;;;;;;4972150;28;20092;-83
2023/05/30 02:19:06;;;;;;;6.97;1.50;;;10.70;99.90;;;;;;4971993;28;20474;-82
2023/05/30 02:21:32;;;;;;;7.70;1.85;;;10.80;99.90;;;;;;4980575;28;20109;-81
2023/05/30 02:23:58;;;;;;;9.30;3.10;;;11.10;99.90;;;;;;4991475;28;20038;-82
2023/05/30 02:26:27;;;;;;;5.05;1.27;;;10.70;99.90;;;;;;5059184;28;20052;-82
2023/05/30 02:28:53;;;;;;;5.47;1.73;;;10.70;99.90;;;;;;5074877;28;20048;-83
2023/05/30 02:31:19;;;;;;;3.40;1.30;;;11.00;99.90;;;;;;5093293;28;20437;-83
2023/05/30 02:33:44;;;;;;;6.13;1.80;;;10.70;99.90;;;;;;5074054;28;20051;-82
2023/05/30 02:36:10;;;;;;;7.18;1.83;;;10.70;99.90;;;;;;5083234;28;20393;-83
2023/05/30 02:38:36;;;;;;;10.18;2.20;;;10.70;99.90;;;;;;5072596;28;20135;-82
2023/05/30 02:41:01;;;;;;;10.52;1.70;;;10.60;99.90;;;;;;5054956;28;20045;-83
2023/05/30 02:43:27;;;;;;;6.78;1.65;;;10.80;99.90;;;;;;5054909;28;20346;-82
2023/05/30 02:45:53;;;;;;;5.93;1.40;;;10.90;99.90;;;;;;5073970;28;20102;-82
2023/05/30 02:48:19;;;;;;;12.55;1.58;;;10.60;99.90;;;;;;5090409;28;20043;-84
2023/05/30 02:50:44;;;;;;;13.10;2.30;;;10.60;99.90;;;;;;5092761;28;20040;-82
2023/05/30 02:53:10;;;;;;;8.18;1.75;;;10.60;99.90;;;;;;5092729;28;20075;-83
2023/05/30 02:55:36;;;;;;;7.05;1.75;;;10.60;99.90;;;;;;5074785;28;20092;-84
2023/05/30 02:58:01;;;;;;;10.68;1.70;;;10.70;99.90;;;;;;5090720;28;20060;-84
2023/05/30 03:00:27;;;;;;;7.97;1.85;;;10.70;99.90;;;;;;5092940;28;20036;-83
2023/05/30 03:02:54;;;;;;;8.43;1.60;;;10.70;99.90;;;;;;5091835;28;20043;-82
2023/05/30 03:05:20;;;;;;;8.57;2.00;;;10.90;99.90;;;;;;5092529;28;20040;-85
2023/05/30 03:07:46;;;;;;;8.30;1.92;;;10.60;99.90;;;;;;5072671;28;20044;-85
2023/05/30 03:10:12;;;;;;;6.53;1.90;;;10.70;99.90;;;;;;5077799;28;20036;-83
2023/05/30 03:12:37;;;;;;;6.88;1.60;;;10.70;99.90;;;;;;5096491;28;20047;-85
2023/05/30 03:15:07;;;;;;;8.63;1.83;;;10.70;99.90;;;;;;5072382;28;20503;-84
2023/05/30 03:17:32;;;;;;;5.28;1.27;;;10.70;99.90;;;;;;5076423;28;20048;-83
2023/05/30 03:19:58;;;;;;;7.05;1.65;;;10.90;99.90;;;;;;5077232;28;20040;-82
2023/05/30 03:22:24;;;;;;;8.07;1.88;;;10.70;99.90;;;;;;5076017;28;20068;-82
2023/05/30 03:24:50;;;;;;;5.50;1.52;;;10.70;99.90;;;;;;5076057;28;20036;-82
2023/05/30 03:27:15;;;;;;;8.95;1.70;;;10.70;99.90;;;;;;5076258;28;20076;-83
2023/05/30 03:29:41;;;;;;;8.25;1.60;;;10.80;99.90;;;;;;5077212;28;20036;-83
2023/05/30 03:32:07;;;;;;;7.35;1.60;;;10.90;99.90;;;;;;5076081;28;20028;-82
2023/05/30 03:34:34;;;;;;;8.70;1.98;;;10.70;99.90;;;;;;5075994;28;20119;-82
2023/05/30 03:36:59;;;;;;;6.85;1.38;;;10.70;99.90;;;;;;5075937;28;20051;-82
2023/05/30 03:39:25;;;;;;;7.72;1.67;;;10.80;99.90;;;;;;5091866;28;20044;-83
2023/05/30 03:41:51;;;;;;;7.68;1.48;;;11.20;99.90;;;;;;5094179;28;20063;-85
2023/05/30 03:44:17;;;;;;;5.47;1.27;;;10.80;99.90;;;;;;5096220;28;20092;-84
2023/05/30 03:46:42;;;;;;;9.10;1.65;;;10.90;99.90;;;;;;5096419;28;20069;-82
2023/05/30 03:49:08;;;;;;;11.63;2.00;;;10.80;99.90;;;;;;5096033;28;20046;-87
2023/05/30 03:51:35;;;;;;;6.65;1.70;;;10.80;99.90;;;;;;5093521;28;20047;-83
2023/05/30 03:54:01;;;;;;;4.60;1.40;;;10.90;99.90;;;;;;5073142;28;20044;-87
2023/05/30 03:56:27;;;;;;;6.18;1.50;;;10.80;99.90;;;;;;5075733;28;20128;-84
2023/05/30 03:58:52;;;;;;;11.52;1.73;;;10.90;99.90;;;;;;5075586;28;20048;-87
2023/05/30 04:01:18;;;;;;;5.72;2.42;;;11.00;99.90;;;;;;5076658;28;20051;-88
2023/05/30 04:03:44;;;;;;;15.00;2.47;;;11.30;99.90;;;;;;5057490;28;20044;-85
2023/05/30 04:06:10;;;;;;;12.25;2.05;;;10.90;99.90;;;;;;5075392;28;20085;-87
2023/05/30 04:08:36;;;;;;;5.00;1.50;;;10.90;99.90;;;;;;5076873;28;20055;-86
2023/05/30 04:11:03;;;;;;;9.18;1.33;;;11.00;99.90;;;;;;5095676;28;20044;-87
2023/05/30 04:13:29;;;;;;;5.00;1.45;;;11.00;99.90;;;;;;5082936;28;20041;-83
2023/05/30 04:15:55;;;;;;;9.68;1.42;;;11.00;99.90;;;;;;5075363;28;20047;-88
2023/05/30 04:18:21;;;;;;;6.15;1.50;;;11.00;99.90;;;;;;5075365;28;20444;-86
2023/05/30 04:20:46;;;;;;;6.25;1.38;;;11.00;99.90;;;;;;5074090;28;20066;-88
2023/05/30 04:23:12;;;;;;;8.70;2.00;;;11.60;99.90;;;;;;5075928;28;20459;-87
2023/05/30 04:25:38;;;;;;;5.38;1.60;;;11.00;99.90;;;;;;5075225;28;20040;-86
2023/05/30 04:28:05;;;;;;;6.18;2.08;;;11.00;99.90;;;;;;5074979;28;20055;-86
2023/05/30 04:30:33;;;;;;;5.55;1.35;;;11.00;99.90;;;;;;5057280;28;20037;-85
2023/05/30 04:32:59;;;;;;;10.20;1.88;;;11.00;99.90;;;;;;5092635;28;20167;-85
2023/05/30 04:35:25;;;;;;;5.95;1.40;;;11.30;99.90;;;;;;5094911;28;20040;-86
2023/05/30 04:37:53;;;;;;;7.03;1.52;;;11.10;99.90;;;;;;5077264;28;20396;-85
2023/05/30 04:40:19;;;;;;;8.43;1.63;;;11.00;99.90;;;;;;5095865;28;20040;-83
2023/05/30 04:42:51;;;;;;;8.95;1.50;;;11.00;99.90;;;;;;5093332;28;20488;-86
2023/05/30 04:45:18;;;;;;;4.63;1.25;;;11.10;99.90;;;;;;5084853;28;20048;-86
2023/05/30 04:47:46;;;;;;;9.75;2.08;;;11.00;99.90;;;;;;5075007;28;20500;-85
2023/05/30 04:50:15;;;;;;;6.13;1.30;;;11.10;99.90;;;;;;5075043;28;20109;-87
2023/05/30 04:52:44;;;;;;;6.38;1.40;;;11.10;99.90;;;;;;5040180;28;20394;-87
2023/05/30 04:55:13;;;;;;;8.38;1.17;;;11.10;99.90;;;;;;5077322;28;20075;-87
2023/05/30 04:57:38;;;;;;;1.77;1.02;;;11.10;99.90;;;;;;5076673;28;20066;-86
2023/05/30 05:00:15;;;;;;;6.22;1.50;;;11.10;99.90;;;;;;5076629;28;20496;-85
2023/05/30 05:02:42;;;;;;;5.53;0.93;;;11.10;99.90;;;;;;5080915;28;20044;-84
2023/05/30 05:05:08;;;;;;;8.15;1.40;;;11.50;99.90;;;;;;5071992;28;20049;-82
2023/05/30 05:07:34;;;;;;;4.95;1.20;;;11.30;99.90;;;;;;5069756;28;20447;-85
2023/05/30 05:10:01;;;;;;;1.88;1.05;;;11.10;99.90;;;;;;5075779;28;20078;-85
2023/05/30 05:12:26;;;;;;;3.17;1.02;;;11.20;99.90;;;;;;5084217;28;20070;-82
2023/05/30 05:14:54;;;;;;;6.20;0.90;;;11.10;99.90;;;;;;5076520;28;20044;-82
2023/05/30 05:17:20;;;;;;;3.42;1.30;;;11.30;99.90;;;;;;5087617;28;20048;-85
2023/05/30 05:19:46;;;;;;;3.97;1.05;;;11.40;99.90;;;;;;5078700;28;20048;-89
2023/05/30 05:33:33;;;;;;;9.00;1.20;;;11.20;99.90;;;;;;5075171;28;20047;-84
2023/05/30 05:35:59;;;;;;;7.22;1.67;;;11.30;99.90;;;;;;5074170;28;20051;-87
2023/05/30 05:38:26;;;;;;;7.07;1.38;;;11.20;99.90;;;;;;5077522;28;20052;-80
2023/05/30 05:40:51;;;;;;;5.47;1.20;;;11.50;99.90;;;;;;5092957;28;20071;-85
2023/05/30 05:43:17;;;;;;;4.70;1.20;;;11.20;99.90;;;;;;5090689;28;20122;-86
2023/05/30 05:45:43;;;;;;;6.03;0.90;;;11.20;99.90;;;;;;5073651;28;20047;-86
2023/05/30 05:48:08;;;;;;;2.50;1.00;;;11.30;99.90;;;;;;5076144;28;20040;-81
2023/05/30 05:50:34;;;;;;;4.13;1.67;;;11.20;99.90;;;;;;5075453;28;20070;-82
2023/05/30 05:53:00;;;;;;;4.93;1.00;;;11.30;99.90;;;;;;5093757;28;20135;-81
2023/05/30 05:55:25;;;;;;;3.03;1.00;;;11.20;99.90;;;;;;5091645;28;20036;-81
2023/05/30 05:57:52;;;;;;;3.15;0.85;;;11.30;99.90;;;;;;5086069;28;20135;-81
2023/05/30 06:00:18;;;;;;;5.32;1.17;;;11.20;99.90;;;;;;5074604;28;20037;-85
2023/05/30 06:02:43;;;;;;;2.95;0.77;;;11.20;99.90;;;;;;5075048;28;20044;-84
2023/05/30 06:05:09;;;;;;;6.63;1.02;;;11.20;99.90;;;;;;5058171;28;20043;-85
2023/05/30 06:07:35;;;;;;;4.97;0.88;;;11.30;99.90;;;;;;5092874;28;20051;-84
2023/05/30 06:10:01;;;;;;;2.70;0.80;;;11.50;99.90;;;;;;5094762;28;20127;-84
2023/05/30 06:12:26;;;;;;;3.30;0.68;;;11.40;99.90;;;;;;5079396;28;20119;-87
2023/05/30 06:14:52;;;;;;;2.83;0.80;;;11.40;99.90;;;;;;5075516;28;20409;-85
2023/05/30 06:17:18;;;;;;;7.45;2.90;;;11.40;99.90;;;;;;5088407;28;20032;-83
2023/05/30 06:19:43;;;;;;;4.82;0.90;;;11.40;99.90;;;;;;5077518;28;20052;-82
2023/05/30 06:36:53;;;;;;;3.80;1.35;;;11.50;99.90;;;;;;5097097;28;20074;-85
2023/05/30 06:39:18;;;;;;;4.50;0.70;;;11.50;99.90;;;;;;5085712;28;20041;-84
2023/05/30 06:41:45;;;;;;;5.85;1.02;;;11.40;99.90;;;;;;5061495;28;20055;-85
2023/05/30 06:44:10;;;;;;;4.28;0.82;;;11.50;99.90;;;;;;5086175;28;20048;-87
2023/05/30 06:46:36;;;;;;;2.33;0.85;;;11.50;99.90;;;;;;5082898;28;20507;-90
2023/05/30 06:49:03;;;;;;;3.55;0.77;;;11.50;99.90;;;;;;5077749;28;20066;-85
2023/05/30 06:51:29;;;;;;;3.55;0.90;;;11.50;99.90;;;;;;5075852;28;20051;-86
2023/05/30 06:53:55;;;;;;;6.43;0.90;;;11.70;99.90;;;;;;5074712;28;20053;-86
2023/05/30 06:56:21;;;;;;;2.45;0.70;;;11.60;99.90;;;;;;5079610;28;20421;-83
2023/05/30 06:58:46;;;;;;;2.25;0.85;;;11.60;99.90;;;;;;5062634;28;20048;-91
2023/05/30 07:01:12;;;;;;;2.72;0.70;;;11.60;99.90;;;;;;5081854;28;20040;-88
2023/05/30 07:03:37;;;;;;;2.05;0.60;;;11.70;99.90;;;;;;5085877;28;20072;-88
2023/05/30 07:06:03;;;;;;;1.60;0.60;;;11.60;99.90;;;;;;5079876;28;20033;-86
2023/05/30 07:08:29;;;;;;;2.08;0.55;;;11.70;99.90;;;;;;5077271;28;20050;-84
2023/05/30 07:10:55;;;;;;;6.88;1.70;;;11.70;99.90;;;;;;5059223;28;20064;-81
2023/05/30 07:13:21;;;;;;;6.15;0.88;;;11.70;99.90;;;;;;5080391;28;20124;-81
2023/05/30 07:15:47;;;;;;;1.60;0.57;;;11.70;99.90;;;;;;5078652;28;20485;-86
2023/05/30 07:18:13;;;;;;;3.30;0.88;;;11.70;99.90;;;;;;5073135;28;20131;-85
2023/05/30 07:20:38;;;;;;;1.85;0.88;;;11.70;99.90;;;;;;5056072;28;20082;-82
2023/05/30 07:23:04;;;;;;;1.35;0.65;;;11.80;99.90;;;;;;5055433;28;20083;-80
2023/05/30 07:25:30;;;;;;;2.22;0.55;;;11.80;99.90;;;;;;5072973;28;20053;-81
2023/05/30 07:27:56;;;;;;;3.13;0.80;;;11.80;99.90;;;;;;5073329;28;20049;-79
2023/05/30 07:30:22;;;;;;;4.13;0.70;;;11.70;99.90;;;;;;5073899;28;20076;-85
2023/05/30 07:32:47;;;;;;;1.30;0.50;;;11.70;99.90;;;;;;5075423;28;20449;-81
2023/05/30 07:35:13;;;;;;;1.00;0.70;;;11.90;99.90;;;;;;5072841;28;20666;-80
2023/05/30 07:37:39;;;;;;;2.40;0.70;;;11.90;99.90;;;;;;5038402;28;20056;-81
2023/05/30 07:40:05;;;;;;;3.30;0.85;;;11.90;99.90;;;;;;5054664;28;20052;-79
2023/05/30 07:42:32;;;;;;;1.40;0.63;;;11.90;99.90;;;;;;5073467;28;20045;-81
2023/05/30 07:44:58;;;;;;;1.20;0.57;;;12.00;99.90;;;;;;5072626;28;20044;-78
2023/05/30 07:47:23;;;;;;;1.25;0.40;;;12.00;99.90;;;;;;5090969;28;20036;-82
2023/05/30 07:49:49;;;;;;;3.20;0.70;;;12.20;99.90;;;;;;5092754;28;20044;-80
2023/05/30 07:52:15;;;;;;;2.80;0.60;;;12.20;99.90;;;;;;5089871;28;20392;-79
2023/05/30 07:54:41;;;;;;;1.60;0.60;;;12.30;99.90;;;;;;5090582;28;20078;-84
2023/05/30 07:57:06;;;;;;;1.27;0.60;;;12.40;99.90;;;;;;5068101;28;20052;-82
2023/05/30 07:59:32;;;;;;;2.45;0.70;;;12.50;99.90;;;;;;5082996;28;20428;-89
2023/05/30 08:01:58;;;;;;;4.10;0.73;;;12.70;99.90;;;;;;5080515;28;20523;-84
2023/05/30 08:04:24;;;;;;;1.60;0.40;;;12.60;99.90;;;;;;5076993;28;20075;-80
2023/05/30 08:06:49;;;;;;;1.75;1.02;;;12.70;99.90;;;;;;5095106;28;20032;-81
2023/05/30 08:09:16;;;;;;;3.40;0.55;;;12.80;99.90;;;;;;5083300;28;20041;-81
2023/05/30 08:11:41;;;;;;;1.05;0.60;;;12.80;99.90;;;;;;5075663;28;20068;-80
2023/05/30 08:14:07;;;;;;;4.32;0.47;;;12.90;99.90;;;;;;5077505;28;20036;-80
2023/05/30 08:16:33;;;;;;;2.00;0.50;;;12.80;99.90;;;;;;5066055;28;20040;-82
2023/05/30 08:18:58;;;;;;;1.80;0.30;;;12.60;99.90;;;;;;5087637;28;20403;-82
2023/05/30 08:21:24;;;;;;;2.75;0.30;;;12.70;99.90;;;;;;5095572;28;20067;-80
2023/05/30 08:23:50;;;;;;;1.00;0.20;;;12.70;99.90;;;;;;5071426;28;20397;-82
2023/05/30 08:26:16;;;;;;;0.73;0.30;;;12.90;99.90;;;;;;5075044;28;20048;-80
2023/05/30 08:28:42;;;;;;;0.50;0.32;;;13.30;99.90;;;;;;5060914;28;20059;-81
2023/05/30 08:31:08;;;;;;;0.17;0.15;;;13.60;99.90;;;;;;5095118;28;20036;-85
2023/05/30 08:33:35;;;;;;;0.47;0.30;;;13.60;99.90;;;;;;5076982;28;20040;-81
2023/05/30 08:36:01;;;;;;;0.90;0.20;;;13.60;99.90;;;;;;5077293;28;20048;-83
2023/05/30 08:38:27;;;;;;;1.38;0.20;;;13.60;99.90;;;;;;5095331;28;20036;-81
2023/05/30 08:40:53;;;;;;;0.30;0.20;;;13.70;99.90;;;;;;5075917;28;20056;-81
2023/05/30 08:43:19;;;;;;;0.52;0.20;;;13.70;99.90;;;;;;5085241;28;20094;-80
2023/05/30 08:45:46;;;;;;;1.15;0.20;;;13.80;99.90;;;;;;5070552;28;20106;-80
2023/05/30 08:48:17;;;;;;;1.70;0.15;;;13.90;99.90;;;;;;5069895;28;20048;-81
2023/05/30 08:50:43;;;;;;;0.20;0.20;;;13.90;99.90;;;;;;5049865;28;20032;-80
2023/05/30 08:53:12;;;;;;;1.27;0.45;;;13.80;99.90;;;;;;5057552;28;20500;-81
2023/05/30 08:55:43;;;;;;;0.47;0.10;;;13.80;99.90;;;;;;5075262;28;20041;-81
2023/05/30 08:58:08;;;;;;;2.00;0.20;;;13.90;99.90;;;;;;5057387;28;20094;-83
2023/05/30 09:00:37;;;;;;;0.90;0.20;;;13.60;99.90;;;;;;5074686;28;20405;-86
2023/05/30 09:03:07;;;;;;;2.92;0.20;;;13.60;99.90;;;;;;5074918;28;20080;-81
2023/05/30 09:05:34;;;;;;;1.92;0.20;;;13.70;99.90;;;;;;5056027;28;20055;-82
2023/05/30 09:08:02;;;;;;;0.47;0.20;;;13.70;99.90;;;;;;5063377;28;20068;-79
2023/05/30 09:10:28;;;;;;;0.80;0.20;;;13.60;99.90;;;;;;5074944;28;20162;-85
2023/05/30 09:12:57;;;;;;;0.98;0.20;;;13.80;99.90;;;;;;5074813;28;20082;-80
2023/05/30 09:15:23;;;;;;;0.45;0.22;;;13.80;99.90;;;;;;5078878;28;20418;-81
2023/05/30 09:17:48;;;;;;;0.32;0.20;;;13.80;99.90;;;;;;5094960;28;20032;-81
2023/05/30 09:20:18;;;;;;;0.40;0.30;;;13.90;99.90;;;;;;5094760;28;20065;-80
2023/05/30 09:22:45;;;;;;;0.22;0.20;;;13.60;99.90;;;;;;5076730;28;20044;-81
2023/05/30 09:25:14;;;;;;;0.47;0.13;;;13.50;99.90;;;;;;5095069;28;20093;-80
2023/05/30 09:27:42;;;;;;;1.02;0.20;;;13.40;99.90;;;;;;5076187;28;20130;-82
2023/05/30 09:30:11;;;;;;;2.47;0.20;;;13.30;99.90;;;;;;5093602;28;20123;-81
2023/05/30 09:32:38;;;;;;;2.92;0.30;;;13.20;99.90;;;;;;5094854;28;20048;-80
2023/05/30 09:35:09;;;;;;;0.88;0.20;;;13.20;99.90;;;;;;5076329;28;20059;-80
2023/05/30 09:37:43;;;;;;;0.40;0.20;;;13.20;99.90;;;;;;5094709;28;20032;-80
2023/05/30 09:40:11;;;;;;;0.52;0.22;;;13.40;99.90;;;;;;5092690;28;20442;-81
2023/05/30 09:42:50;;;;;;;1.02;0.28;;;13.60;99.90;;;;;;5083905;28;20118;-81
2023/05/30 09:45:23;;;;;;;0.90;0.20;;;13.80;99.90;;;;;;5062170;28;20050;-82
2023/05/30 09:47:50;;;;;;;0.40;0.20;;;14.10;99.90;;;;;;5093477;28;20094;-81
2023/05/30 09:50:18;;;;;;;0.38;0.20;;;13.90;99.90;;;;;;5076044;28;20044;-81
2023/05/30 09:52:45;;;;;;;2.90;0.30;;;13.90;99.90;;;;;;5093876;28;20542;-80
2023/05/30 09:55:15;;;;;;;1.35;0.75;;;13.80;99.90;;;;;;5092779;28;20110;-81
2023/05/30 09:57:46;;;;;;;0.55;0.20;;;13.90;99.90;;;;;;5093355;28;20109;-81
2023/05/30 10:00:15;;;;;;;0.32;0.20;;;13.80;99.90;;;;;;5093718;28;20036;-81
2023/05/30 10:02:43;;;;;;;0.40;0.20;;;13.90;99.90;;;;;;5075522;28;20073;-80
2023/05/30 10:05:39;;;;;;;1.00;0.20;;;14.20;99.90;;;;;;5093815;28;20047;-81
2023/05/30 10:08:04;;;;;;;0.40;0.22;;;14.20;99.90;;;;;;5009196;28;20065;-80
2023/05/30 10:10:31;;;;;;;0.30;0.30;;;14.20;99.90;;;;;;5011355;28;20049;-80
2023/05/30 10:13:01;;;;;;;0.22;0.22;;;13.90;99.90;;;;;;5011783;28;20090;-85
2023/05/30 10:15:26;;;;;;;0.63;0.20;;;14.00;99.90;;;;;;5012000;28;20046;-81
2023/05/30 10:18:04;;;;;;;0.50;0.30;;;14.10;99.90;;;;;;5005636;28;20057;-82
2023/05/30 10:20:40;;;;;;;0.50;0.30;;;14.10;99.90;;;;;;5008029;28;20038;-81
2023/05/30 10:27:41;;;;;;;1.45;0.20;;;14.30;99.90;;;;;;5013434;28;20153;-85
2023/05/30 10:30:08;;;;;;;0.85;0.30;;;14.50;99.90;;;;;;5005327;28;20061;-82
2023/05/30 10:32:36;;;;;;;0.30;0.20;;;14.70;99.90;;;;;;4998576;28;20128;-84
2023/05/30 10:35:16;;;;;;;1.30;0.40;;;14.80;99.90;;;;;;4998797;28;20077;-84
2023/05/30 10:37:42;;;;;;;4.00;0.40;;;14.80;99.90;;;;;;5015247;28;20054;-83
2023/05/30 10:40:34;;;;;;;0.65;0.30;;;14.70;99.90;;;;;;5003646;28;20405;-83
2023/05/30 10:43:14;;;;;;;0.40;0.38;;;14.60;99.90;;;;;;4957512;28;20130;-85
2023/05/30 10:46:01;;;;;;;0.30;0.30;;;14.60;99.90;;;;;;5034396;28;20200;-82
2023/05/30 10:48:27;;;;;;;0.30;0.30;;;14.50;99.90;;;;;;5032394;28;20079;-83
2023/05/30 10:50:58;;;;;;;0.75;0.50;;;14.50;99.90;;;;;;5034824;28;20045;-82
2023/05/30 10:53:24;;;;;;;0.57;0.30;;;14.60;99.90;;;;;;5033245;28;20053;-82
2023/05/30 10:55:51;;;;;;;0.40;0.30;;;14.50;99.90;;;;;;5035006;28;20053;-84
2023/05/30 10:58:37;;;;;;;0.47;0.30;;;14.40;99.90;;;;;;5033966;28;20045;-84
2023/05/30 11:01:31;;;;;;;0.85;0.30;;;14.20;99.90;;;;;;5032079;28;20108;-84
2023/05/30 11:04:04;;;;;;;0.60;0.30;;;14.30;99.90;;;;;;5033220;28;20056;-85
2023/05/30 11:06:37;;;;;;;0.63;0.20;;;14.30;99.90;;;;;;5035536;28;20132;-84
2023/05/30 11:09:16;;;;;;;0.47;0.30;;;14.30;99.90;;;;;;5031408;28;20049;-84
2023/05/30 11:11:53;;;;;;;0.35;0.22;;;14.40;99.90;;;;;;5016142;28;20053;-87
2023/05/30 11:14:25;;;;;;;0.35;0.20;;;14.50;99.90;;;;;;5027856;28;20156;-90
2023/05/30 11:16:59;;;;;;;0.25;0.10;;;14.80;99.90;;;;;;5034040;28;20571;-89
2023/05/30 11:19:25;;;;;;;0.75;0.20;;;14.60;99.90;;;;;;5033283;28;20092;-88
2023/05/30 11:22:08;;;;;;;0.55;0.20;;;14.80;99.90;;;;;;5092638;28;20068;-88
2023/05/30 11:24:34;;;;;;;0.20;0.20;;;14.80;99.90;;;;;;5093489;28;20070;-90
2023/05/30 11:27:05;;;;;;;0.32;0.20;;;14.90;99.90;;;;;;5059057;28;20130;-89
2023/05/30 11:29:47;;;;;;;0.32;0.20;;;15.10;99.90;;;;;;5094212;28;20054;-87
2023/05/30 11:32:17;;;;;;;0.22;0.20;;;15.00;99.90;;;;;;5095316;28;20123;-85
2023/05/30 11:34:43;;;;;;;1.60;0.30;;;14.80;99.90;;;;;;5078643;28;20144;-84
2023/05/30 11:37:09;;;;;;;1.23;0.30;;;14.60;99.90;;;;;;5098024;28;20185;-84
2023/05/30 11:39:36;;;;;;;0.32;0.28;;;14.40;99.90;;;;;;5096818;28;20051;-90
2023/05/30 11:42:07;;;;;;;1.90;0.38;;;14.30;99.90;;;;;;5098721;28;20044;-86
2023/05/30 11:44:33;;;;;;;0.88;0.30;;;14.00;99.90;;;;;;5091455;28;20055;-85
2023/05/30 11:47:06;;;;;;;0.85;0.30;;;14.00;99.90;;;;;;5098112;28;20114;-88
2023/05/30 11:49:33;;;;;;;0.90;0.30;;;14.00;99.90;;;;;;5079258;28;20071;-85
2023/05/30 11:51:59;;;;;;;1.10;0.30;;;14.10;99.90;;;;;;5097076;28;20447;-87
2023/05/30 11:54:26;;;;;;;0.30;0.30;;;14.20;99.90;;;;;;5070751;28;20049;-83
2023/05/30 11:56:57;;;;;;;1.65;0.32;;;14.50;99.90;;;;;;5088720;28;20100;-93
2023/05/30 11:59:27;;;;;;;1.13;0.40;;;14.50;99.90;;;;;;5059115;28;20123;-84
2023/05/30 12:01:59;;;;;;;0.38;0.30;;;14.90;99.90;;;;;;5085319;28;20040;-81
2023/05/30 12:04:29;;;;;;;0.80;0.30;;;15.10;99.90;;;;;;5094332;28;20075;-82
2023/05/30 12:07:03;;;;;;;1.20;0.28;;;15.20;99.90;;;;;;5095472;28;20072;-82
2023/05/30 12:09:35;;;;;;;0.20;0.20;;;15.10;99.90;;;;;;5092906;28;20044;-84
2023/05/30 12:12:01;;;;;;;1.85;0.32;;;15.10;99.90;;;;;;5096218;28;20083;-81
2023/05/30 12:14:42;;;;;;;1.67;0.30;;;15.10;99.90;;;;;;5096403;28;20036;-82
2023/05/30 12:17:09;;;;;;;0.50;0.22;;;15.10;99.90;;;;;;5069027;28;20048;-83
2023/05/30 12:19:35;;;;;;;0.85;0.20;;;14.90;99.90;;;;;;5095756;28;20051;-83
2023/05/30 12:22:05;;;;;;;0.47;0.30;;;14.80;99.90;;;;;;5078057;28;20043;-83
2023/05/30 12:24:37;;;;;;;0.57;0.22;;;14.70;99.90;;;;;;5096568;28;20052;-83
2023/05/30 12:27:06;;;;;;;0.30;0.30;;;14.60;99.90;;;;;;5081596;28;20066;-84
2023/05/30 12:29:35;;;;;;;0.30;0.30;;;14.50;99.90;;;;;;5076476;28;20393;-83
2023/05/30 12:32:02;;;;;;;1.45;0.60;;;14.50;99.90;;;;;;5076939;28;20436;-83
2023/05/30 12:34:47;;;;;;;1.60;0.35;;;14.40;99.90;;;;;;5075640;28;20071;-82
2023/05/30 12:37:15;;;;;;;3.20;0.32;;;14.40;99.90;;;;;;5083097;28;20498;-85
2023/05/30 12:39:52;;;;;;;0.90;0.60;;;14.30;99.90;;;;;;5095929;28;20480;-83
2023/05/30 12:42:22;;;;;;;0.80;0.35;;;14.30;99.90;;;;;;5095552;28;20062;-86
2023/05/30 12:44:50;;;;;;;1.35;0.40;;;14.20;99.90;;;;;;5079042;28;20070;-82
2023/05/30 12:47:16;;;;;;;0.90;0.38;;;14.50;99.90;;;;;;5090655;28;20521;-85
2023/05/30 12:49:43;;;;;;;1.88;0.30;;;14.50;99.90;;;;;;5086969;28;20044;-82
2023/05/30 12:52:10;;;;;;;0.30;0.30;;;14.80;99.90;;;;;;5074654;28;20049;-83
2023/05/30 12:54:36;;;;;;;1.00;0.32;;;14.90;99.90;;;;;;5056499;28;20138;-83
2023/05/30 12:57:04;;;;;;;0.60;0.40;;;15.10;99.90;;;;;;5077952;28;20088;-83
2023/05/30 12:59:30;;;;;;;2.40;0.45;;;15.10;99.90;;;;;;5094530;28;20067;-83
2023/05/30 13:01:56;;;;;;;3.00;0.57;;;15.00;99.90;;;;;;5094483;28;20088;-82
2023/05/30 13:04:22;;;;;;;0.90;0.40;;;14.70;99.90;;;;;;5094526;28;20043;-85
2023/05/30 13:06:48;;;;;;;0.82;0.38;;;14.80;99.90;;;;;;5076647;28;20044;-83
2023/05/30 13:09:15;;;;;;;0.70;0.40;;;14.80;99.90;;;;;;5063491;28;20067;-84
2023/05/30 13:11:41;;;;;;;0.85;0.40;;;15.00;99.90;;;;;;5076777;28;20047;-84
2023/05/30 13:14:06;;;;;;;0.80;0.50;;;15.10;99.90;;;;;;5057395;28;20056;-82
2023/05/30 13:16:33;;;;;;;0.80;0.40;;;15.10;99.90;;;;;;5074619;28;20047;-85
2023/05/30 13:18:59;;;;;;;0.75;0.40;;;15.30;99.90;;;;;;5081544;28;20051;-81
2023/05/30 13:21:25;;;;;;;0.47;0.30;;;15.40;99.90;;;;;;5077361;28;20416;-83
2023/05/30 13:23:51;;;;;;;0.90;0.40;;;15.50;99.90;;;;;;5057004;28;20051;-85
2023/05/30 13:26:16;;;;;;;0.82;0.40;;;15.60;99.90;;;;;;5074341;28;20097;-83
2023/05/30 13:28:42;;;;;;;1.00;0.30;;;15.60;99.90;;;;;;5056205;28;20040;-85